sensor_id;sensor_type;location;lat;lon;timestamp;P1;durP1;ratioP1;P2;durP2;ratioP2
26277;SDS011;14000;52.056;8.510;2022-08-21T00:00:53;11.07;;;4.57;;
26277;SDS011;14000;52.056;8.510;2022-08-21T00:03:19;11.57;;;4.67;;
26277;SDS011;14000;52.056;8.510;2022-08-21T00:05:46;12.17;;;4.80;;
26277;SDS011;14000;52.056;8.510;2022-08-21T00:08:15;15.00;;;4.90;;
26277;SDS011;14000;52.056;8.510;2022-08-21T00:10:42;13.30;;;4.50;;
26277;SDS011;14000;52.056;8.510;2022-08-21T00:13:09;10.37;;;4.23;;
26277;SDS011;14000;52.056;8.510;2022-08-21T00:15:36;10.77;;;4.33;;
26277;SDS011;14000;52.056;8.510;2022-08-21T00:18:03;14.50;;;4.73;;
26277;SDS011;14000;52.056;8.510;2022-08-21T00:20:30;12.57;;;4.83;;
26277;SDS011;14000;52.056;8.510;2022-08-21T00:22:57;11.73;;;4.53;;
26277;SDS011;14000;52.056;8.510;2022-08-21T00:25:23;12.57;;;5.07;;
26277;SDS011;14000;52.056;8.510;2022-08-21T00:27:49;11.50;;;4.07;;
26277;SDS011;14000;52.056;8.510;2022-08-21T00:30:16;14.00;;;4.93;;
26277;SDS011;14000;52.056;8.510;2022-08-21T00:32:42;12.47;;;4.83;;
26277;SDS011;14000;52.056;8.510;2022-08-21T00:35:11;11.20;;;3.97;;
26277;SDS011;14000;52.056;8.510;2022-08-21T00:37:39;11.90;;;4.20;;
26277;SDS011;14000;52.056;8.510;2022-08-21T00:40:06;9.87;;;4.37;;
26277;SDS011;14000;52.056;8.510;2022-08-21T00:42:35;9.93;;;4.47;;
26277;SDS011;14000;52.056;8.510;2022-08-21T00:45:02;13.57;;;4.53;;
26277;SDS011;14000;52.056;8.510;2022-08-21T00:47:28;13.30;;;4.23;;
26277;SDS011;14000;52.056;8.510;2022-08-21T00:49:54;12.93;;;3.93;;
26277;SDS011;14000;52.056;8.510;2022-08-21T00:52:24;11.73;;;4.37;;
26277;SDS011;14000;52.056;8.510;2022-08-21T00:54:53;11.40;;;4.70;;
26277;SDS011;14000;52.056;8.510;2022-08-21T00:57:21;11.27;;;4.53;;
26277;SDS011;14000;52.056;8.510;2022-08-21T00:59:51;11.50;;;4.13;;
26277;SDS011;14000;52.056;8.510;2022-08-21T01:02:18;13.70;;;4.60;;
26277;SDS011;14000;52.056;8.510;2022-08-21T01:04:45;10.70;;;4.00;;
26277;SDS011;14000;52.056;8.510;2022-08-21T01:07:11;12.37;;;4.23;;
26277;SDS011;14000;52.056;8.510;2022-08-21T01:09:38;11.30;;;4.43;;
26277;SDS011;14000;52.056;8.510;2022-08-21T01:12:04;12.80;;;4.47;;
26277;SDS011;14000;52.056;8.510;2022-08-21T01:14:30;14.27;;;4.43;;
26277;SDS011;14000;52.056;8.510;2022-08-21T01:16:57;12.93;;;4.50;;
26277;SDS011;14000;52.056;8.510;2022-08-21T01:19:25;13.57;;;5.07;;
26277;SDS011;14000;52.056;8.510;2022-08-21T01:21:51;14.00;;;5.30;;
26277;SDS011;14000;52.056;8.510;2022-08-21T01:24:17;14.53;;;5.13;;
26277;SDS011;14000;52.056;8.510;2022-08-21T01:26:43;12.70;;;5.20;;
26277;SDS011;14000;52.056;8.510;2022-08-21T01:31:58;14.10;;;4.80;;
26277;SDS011;14000;52.056;8.510;2022-08-21T01:34:24;13.93;;;4.90;;
26277;SDS011;14000;52.056;8.510;2022-08-21T01:36:50;12.23;;;4.70;;
26277;SDS011;14000;52.056;8.510;2022-08-21T01:39:16;10.27;;;3.93;;
26277;SDS011;14000;52.056;8.510;2022-08-21T01:41:42;13.50;;;5.13;;
26277;SDS011;14000;52.056;8.510;2022-08-21T01:44:08;13.10;;;5.37;;
26277;SDS011;14000;52.056;8.510;2022-08-21T01:46:34;15.17;;;4.80;;
26277;SDS011;14000;52.056;8.510;2022-08-21T01:49:00;11.20;;;4.37;;
26277;SDS011;14000;52.056;8.510;2022-08-21T01:51:25;11.60;;;4.83;;
26277;SDS011;14000;52.056;8.510;2022-08-21T01:53:51;14.63;;;5.30;;
26277;SDS011;14000;52.056;8.510;2022-08-21T01:56:17;11.60;;;4.93;;
26277;SDS011;14000;52.056;8.510;2022-08-21T01:58:44;11.63;;;5.10;;
26277;SDS011;14000;52.056;8.510;2022-08-21T02:01:11;12.00;;;5.00;;
26277;SDS011;14000;52.056;8.510;2022-08-21T02:03:37;11.90;;;5.23;;
26277;SDS011;14000;52.056;8.510;2022-08-21T02:06:04;11.03;;;4.37;;
26277;SDS011;14000;52.056;8.510;2022-08-21T02:08:31;10.93;;;4.30;;
26277;SDS011;14000;52.056;8.510;2022-08-21T02:10:58;11.53;;;4.10;;
26277;SDS011;14000;52.056;8.510;2022-08-21T02:13:23;11.77;;;4.97;;
26277;SDS011;14000;52.056;8.510;2022-08-21T02:15:50;16.87;;;5.33;;
26277;SDS011;14000;52.056;8.510;2022-08-21T02:18:16;11.53;;;4.33;;
26277;SDS011;14000;52.056;8.510;2022-08-21T02:20:43;11.13;;;4.93;;
26277;SDS011;14000;52.056;8.510;2022-08-21T02:23:21;12.37;;;4.87;;
26277;SDS011;14000;52.056;8.510;2022-08-21T02:26:02;12.40;;;4.50;;
26277;SDS011;14000;52.056;8.510;2022-08-21T02:28:33;13.57;;;5.50;;
26277;SDS011;14000;52.056;8.510;2022-08-21T02:30:59;11.80;;;4.80;;
26277;SDS011;14000;52.056;8.510;2022-08-21T02:33:26;11.57;;;4.40;;
26277;SDS011;14000;52.056;8.510;2022-08-21T02:35:52;8.73;;;3.90;;
26277;SDS011;14000;52.056;8.510;2022-08-21T02:38:21;12.60;;;4.70;;
26277;SDS011;14000;52.056;8.510;2022-08-21T02:40:50;12.97;;;4.70;;
26277;SDS011;14000;52.056;8.510;2022-08-21T02:43:18;12.87;;;4.57;;
26277;SDS011;14000;52.056;8.510;2022-08-21T02:45:45;11.80;;;4.90;;
26277;SDS011;14000;52.056;8.510;2022-08-21T02:48:14;13.27;;;5.70;;
26277;SDS011;14000;52.056;8.510;2022-08-21T02:50:44;12.83;;;5.20;;
26277;SDS011;14000;52.056;8.510;2022-08-21T02:53:13;11.90;;;5.03;;
26277;SDS011;14000;52.056;8.510;2022-08-21T02:55:46;12.93;;;5.90;;
26277;SDS011;14000;52.056;8.510;2022-08-21T02:58:13;12.87;;;5.63;;
26277;SDS011;14000;52.056;8.510;2022-08-21T03:00:40;16.07;;;6.30;;
26277;SDS011;14000;52.056;8.510;2022-08-21T03:03:06;16.20;;;5.53;;
26277;SDS011;14000;52.056;8.510;2022-08-21T03:05:33;10.73;;;4.97;;
26277;SDS011;14000;52.056;8.510;2022-08-21T03:08:00;15.00;;;6.87;;
26277;SDS011;14000;52.056;8.510;2022-08-21T03:10:27;17.23;;;8.30;;
26277;SDS011;14000;52.056;8.510;2022-08-21T03:12:53;17.27;;;8.30;;
26277;SDS011;14000;52.056;8.510;2022-08-21T03:15:21;20.17;;;7.80;;
26277;SDS011;14000;52.056;8.510;2022-08-21T03:17:51;17.97;;;7.03;;
26277;SDS011;14000;52.056;8.510;2022-08-21T03:20:19;17.77;;;7.70;;
26277;SDS011;14000;52.056;8.510;2022-08-21T03:22:47;16.53;;;7.70;;
26277;SDS011;14000;52.056;8.510;2022-08-21T03:25:13;16.53;;;6.53;;
26277;SDS011;14000;52.056;8.510;2022-08-21T03:27:39;15.60;;;7.20;;
26277;SDS011;14000;52.056;8.510;2022-08-21T03:30:05;16.70;;;6.80;;
26277;SDS011;14000;52.056;8.510;2022-08-21T03:32:32;16.83;;;7.73;;
26277;SDS011;14000;52.056;8.510;2022-08-21T03:34:58;13.83;;;6.30;;
26277;SDS011;14000;52.056;8.510;2022-08-21T03:37:25;13.83;;;6.40;;
26277;SDS011;14000;52.056;8.510;2022-08-21T03:39:51;18.07;;;6.93;;
26277;SDS011;14000;52.056;8.510;2022-08-21T03:42:16;16.27;;;7.00;;
26277;SDS011;14000;52.056;8.510;2022-08-21T03:44:42;13.80;;;7.03;;
26277;SDS011;14000;52.056;8.510;2022-08-21T03:47:08;16.33;;;7.00;;
26277;SDS011;14000;52.056;8.510;2022-08-21T03:49:34;14.13;;;6.67;;
26277;SDS011;14000;52.056;8.510;2022-08-21T03:52:00;14.67;;;5.80;;
26277;SDS011;14000;52.056;8.510;2022-08-21T03:54:27;11.97;;;5.83;;
26277;SDS011;14000;52.056;8.510;2022-08-21T03:56:53;13.43;;;5.97;;
26277;SDS011;14000;52.056;8.510;2022-08-21T03:59:19;16.03;;;6.77;;
26277;SDS011;14000;52.056;8.510;2022-08-21T04:01:52;12.87;;;6.40;;
26277;SDS011;14000;52.056;8.510;2022-08-21T04:04:18;14.63;;;6.57;;
26277;SDS011;14000;52.056;8.510;2022-08-21T04:06:44;13.30;;;5.80;;
26277;SDS011;14000;52.056;8.510;2022-08-21T04:09:09;13.47;;;5.63;;
26277;SDS011;14000;52.056;8.510;2022-08-21T04:11:35;13.23;;;6.47;;
26277;SDS011;14000;52.056;8.510;2022-08-21T04:14:01;15.37;;;6.90;;
26277;SDS011;14000;52.056;8.510;2022-08-21T04:16:27;12.97;;;6.43;;
26277;SDS011;14000;52.056;8.510;2022-08-21T04:18:53;13.23;;;6.03;;
26277;SDS011;14000;52.056;8.510;2022-08-21T04:21:19;14.20;;;6.97;;
26277;SDS011;14000;52.056;8.510;2022-08-21T04:23:44;11.97;;;5.80;;
26277;SDS011;14000;52.056;8.510;2022-08-21T04:26:10;12.87;;;5.97;;
26277;SDS011;14000;52.056;8.510;2022-08-21T04:28:36;14.67;;;6.60;;
26277;SDS011;14000;52.056;8.510;2022-08-21T04:31:01;13.90;;;6.97;;
26277;SDS011;14000;52.056;8.510;2022-08-21T04:33:27;13.00;;;6.03;;
26277;SDS011;14000;52.056;8.510;2022-08-21T04:35:54;13.80;;;5.47;;
26277;SDS011;14000;52.056;8.510;2022-08-21T04:38:20;12.67;;;6.23;;
26277;SDS011;14000;52.056;8.510;2022-08-21T04:40:46;12.13;;;6.00;;
26277;SDS011;14000;52.056;8.510;2022-08-21T04:43:13;11.13;;;5.13;;
26277;SDS011;14000;52.056;8.510;2022-08-21T04:45:40;11.87;;;6.03;;
26277;SDS011;14000;52.056;8.510;2022-08-21T04:48:09;10.97;;;5.60;;
26277;SDS011;14000;52.056;8.510;2022-08-21T04:50:47;14.70;;;6.53;;
26277;SDS011;14000;52.056;8.510;2022-08-21T04:53:25;12.03;;;5.43;;
26277;SDS011;14000;52.056;8.510;2022-08-21T04:56:23;10.47;;;4.90;;
26277;SDS011;14000;52.056;8.510;2022-08-21T04:58:54;12.47;;;6.23;;
26277;SDS011;14000;52.056;8.510;2022-08-21T05:01:22;12.90;;;6.37;;
26277;SDS011;14000;52.056;8.510;2022-08-21T05:03:50;11.93;;;5.63;;
26277;SDS011;14000;52.056;8.510;2022-08-21T05:06:20;12.50;;;5.43;;
26277;SDS011;14000;52.056;8.510;2022-08-21T05:08:48;13.63;;;5.93;;
26277;SDS011;14000;52.056;8.510;2022-08-21T05:11:15;12.57;;;6.40;;
26277;SDS011;14000;52.056;8.510;2022-08-21T05:13:40;12.93;;;5.70;;
26277;SDS011;14000;52.056;8.510;2022-08-21T05:16:06;15.27;;;6.50;;
26277;SDS011;14000;52.056;8.510;2022-08-21T05:18:32;15.07;;;6.63;;
26277;SDS011;14000;52.056;8.510;2022-08-21T05:20:58;12.90;;;6.43;;
26277;SDS011;14000;52.056;8.510;2022-08-21T05:23:24;13.43;;;6.33;;
26277;SDS011;14000;52.056;8.510;2022-08-21T05:25:50;17.63;;;8.30;;
26277;SDS011;14000;52.056;8.510;2022-08-21T05:28:16;15.23;;;7.17;;
26277;SDS011;14000;52.056;8.510;2022-08-21T05:30:43;18.17;;;6.90;;
26277;SDS011;14000;52.056;8.510;2022-08-21T05:33:09;17.77;;;8.87;;
26277;SDS011;14000;52.056;8.510;2022-08-21T05:35:35;12.17;;;6.37;;
26277;SDS011;14000;52.056;8.510;2022-08-21T05:38:02;15.17;;;6.57;;
26277;SDS011;14000;52.056;8.510;2022-08-21T05:40:29;17.93;;;8.27;;
26277;SDS011;14000;52.056;8.510;2022-08-21T05:42:55;14.83;;;6.63;;
26277;SDS011;14000;52.056;8.510;2022-08-21T05:45:22;11.90;;;5.60;;
26277;SDS011;14000;52.056;8.510;2022-08-21T05:47:49;12.37;;;6.00;;
26277;SDS011;14000;52.056;8.510;2022-08-21T05:50:14;11.70;;;5.27;;
26277;SDS011;14000;52.056;8.510;2022-08-21T05:52:40;14.50;;;5.23;;
26277;SDS011;14000;52.056;8.510;2022-08-21T05:55:06;13.17;;;5.67;;
26277;SDS011;14000;52.056;8.510;2022-08-21T05:57:31;13.03;;;5.27;;
26277;SDS011;14000;52.056;8.510;2022-08-21T05:59:57;13.50;;;5.87;;
26277;SDS011;14000;52.056;8.510;2022-08-21T06:02:23;17.90;;;8.33;;
26277;SDS011;14000;52.056;8.510;2022-08-21T06:04:48;14.37;;;7.30;;
26277;SDS011;14000;52.056;8.510;2022-08-21T06:07:14;15.33;;;6.93;;
26277;SDS011;14000;52.056;8.510;2022-08-21T06:09:40;15.63;;;7.30;;
26277;SDS011;14000;52.056;8.510;2022-08-21T06:12:08;16.07;;;7.77;;
26277;SDS011;14000;52.056;8.510;2022-08-21T06:14:36;13.50;;;6.90;;
26277;SDS011;14000;52.056;8.510;2022-08-21T06:17:04;14.53;;;7.50;;
26277;SDS011;14000;52.056;8.510;2022-08-21T06:19:31;19.30;;;7.53;;
26277;SDS011;14000;52.056;8.510;2022-08-21T06:21:57;13.43;;;7.60;;
26277;SDS011;14000;52.056;8.510;2022-08-21T06:24:23;15.43;;;8.10;;
26277;SDS011;14000;52.056;8.510;2022-08-21T06:26:49;15.17;;;7.43;;
26277;SDS011;14000;52.056;8.510;2022-08-21T06:29:15;15.17;;;7.80;;
26277;SDS011;14000;52.056;8.510;2022-08-21T06:31:44;16.90;;;7.60;;
26277;SDS011;14000;52.056;8.510;2022-08-21T06:34:12;13.80;;;7.00;;
26277;SDS011;14000;52.056;8.510;2022-08-21T06:36:38;16.37;;;7.93;;
26277;SDS011;14000;52.056;8.510;2022-08-21T06:39:03;12.03;;;7.23;;
26277;SDS011;14000;52.056;8.510;2022-08-21T06:41:30;13.03;;;6.70;;
26277;SDS011;14000;52.056;8.510;2022-08-21T06:43:56;21.10;;;10.43;;
26277;SDS011;14000;52.056;8.510;2022-08-21T06:46:23;14.63;;;7.60;;
26277;SDS011;14000;52.056;8.510;2022-08-21T06:48:50;14.43;;;6.90;;
26277;SDS011;14000;52.056;8.510;2022-08-21T06:51:16;15.47;;;7.00;;
26277;SDS011;14000;52.056;8.510;2022-08-21T06:53:42;14.37;;;6.50;;
26277;SDS011;14000;52.056;8.510;2022-08-21T06:56:08;14.27;;;6.60;;
26277;SDS011;14000;52.056;8.510;2022-08-21T06:58:34;13.63;;;6.23;;
26277;SDS011;14000;52.056;8.510;2022-08-21T07:01:00;18.20;;;7.97;;
26277;SDS011;14000;52.056;8.510;2022-08-21T07:03:27;16.67;;;6.77;;
26277;SDS011;14000;52.056;8.510;2022-08-21T07:05:55;23.37;;;11.03;;
26277;SDS011;14000;52.056;8.510;2022-08-21T07:08:23;15.17;;;7.10;;
26277;SDS011;14000;52.056;8.510;2022-08-21T07:10:50;15.93;;;6.00;;
26277;SDS011;14000;52.056;8.510;2022-08-21T07:13:17;17.53;;;6.07;;
26277;SDS011;14000;52.056;8.510;2022-08-21T07:15:43;12.07;;;5.13;;
26277;SDS011;14000;52.056;8.510;2022-08-21T07:18:09;13.77;;;5.47;;
26277;SDS011;14000;52.056;8.510;2022-08-21T07:20:36;15.37;;;5.63;;
26277;SDS011;14000;52.056;8.510;2022-08-21T07:23:06;13.60;;;5.50;;
26277;SDS011;14000;52.056;8.510;2022-08-21T07:25:35;17.47;;;6.53;;
26277;SDS011;14000;52.056;8.510;2022-08-21T07:28:01;15.37;;;5.13;;
26277;SDS011;14000;52.056;8.510;2022-08-21T07:30:27;14.63;;;5.70;;
26277;SDS011;14000;52.056;8.510;2022-08-21T07:32:53;11.67;;;5.10;;
26277;SDS011;14000;52.056;8.510;2022-08-21T07:35:20;13.80;;;5.10;;
26277;SDS011;14000;52.056;8.510;2022-08-21T07:37:46;14.83;;;5.30;;
26277;SDS011;14000;52.056;8.510;2022-08-21T07:40:12;13.80;;;3.83;;
26277;SDS011;14000;52.056;8.510;2022-08-21T07:42:42;12.27;;;4.17;;
26277;SDS011;14000;52.056;8.510;2022-08-21T07:45:09;14.17;;;4.27;;
26277;SDS011;14000;52.056;8.510;2022-08-21T07:47:35;13.20;;;3.20;;
26277;SDS011;14000;52.056;8.510;2022-08-21T07:50:01;11.60;;;3.23;;
26277;SDS011;14000;52.056;8.510;2022-08-21T07:52:28;14.77;;;5.23;;
26277;SDS011;14000;52.056;8.510;2022-08-21T07:54:54;15.13;;;3.23;;
26277;SDS011;14000;52.056;8.510;2022-08-21T07:57:19;13.23;;;3.00;;
26277;SDS011;14000;52.056;8.510;2022-08-21T07:59:45;12.97;;;4.03;;
26277;SDS011;14000;52.056;8.510;2022-08-21T08:02:20;9.80;;;3.67;;
26277;SDS011;14000;52.056;8.510;2022-08-21T08:04:50;10.00;;;3.00;;
26277;SDS011;14000;52.056;8.510;2022-08-21T08:07:16;13.17;;;3.40;;
26277;SDS011;14000;52.056;8.510;2022-08-21T08:09:42;11.67;;;3.53;;
26277;SDS011;14000;52.056;8.510;2022-08-21T08:12:08;14.30;;;4.70;;
26277;SDS011;14000;52.056;8.510;2022-08-21T08:14:34;12.13;;;4.17;;
26277;SDS011;14000;52.056;8.510;2022-08-21T08:17:00;14.07;;;4.47;;
26277;SDS011;14000;52.056;8.510;2022-08-21T08:19:27;14.90;;;4.67;;
26277;SDS011;14000;52.056;8.510;2022-08-21T08:21:53;13.37;;;4.13;;
26277;SDS011;14000;52.056;8.510;2022-08-21T08:24:19;13.53;;;4.07;;
26277;SDS011;14000;52.056;8.510;2022-08-21T08:26:45;13.70;;;3.77;;
26277;SDS011;14000;52.056;8.510;2022-08-21T08:29:11;12.73;;;3.70;;
26277;SDS011;14000;52.056;8.510;2022-08-21T08:31:37;14.70;;;3.67;;
26277;SDS011;14000;52.056;8.510;2022-08-21T08:34:03;11.57;;;3.67;;
26277;SDS011;14000;52.056;8.510;2022-08-21T08:36:35;11.97;;;3.20;;
26277;SDS011;14000;52.056;8.510;2022-08-21T08:39:18;11.80;;;3.10;;
26277;SDS011;14000;52.056;8.510;2022-08-21T08:41:44;16.53;;;3.67;;
26277;SDS011;14000;52.056;8.510;2022-08-21T08:44:12;11.37;;;3.30;;
26277;SDS011;14000;52.056;8.510;2022-08-21T08:46:39;12.37;;;3.20;;
26277;SDS011;14000;52.056;8.510;2022-08-21T08:52:49;12.53;;;3.57;;
26277;SDS011;14000;52.056;8.510;2022-08-21T08:57:51;13.13;;;3.10;;
26277;SDS011;14000;52.056;8.510;2022-08-21T09:00:20;13.97;;;3.30;;
26277;SDS011;14000;52.056;8.510;2022-08-21T09:02:47;10.87;;;3.00;;
26277;SDS011;14000;52.056;8.510;2022-08-21T09:05:20;14.63;;;3.67;;
26277;SDS011;14000;52.056;8.510;2022-08-21T09:10:20;13.90;;;3.27;;
26277;SDS011;14000;52.056;8.510;2022-08-21T09:13:00;11.63;;;3.50;;
26277;SDS011;14000;52.056;8.510;2022-08-21T09:15:32;13.13;;;2.97;;
26277;SDS011;14000;52.056;8.510;2022-08-21T09:26:14;12.07;;;3.30;;
26277;SDS011;14000;52.056;8.510;2022-08-21T09:28:40;14.90;;;3.30;;
26277;SDS011;14000;52.056;8.510;2022-08-21T09:31:07;13.87;;;4.47;;
26277;SDS011;14000;52.056;8.510;2022-08-21T09:33:36;15.90;;;4.33;;
26277;SDS011;14000;52.056;8.510;2022-08-21T09:36:02;12.13;;;3.60;;
26277;SDS011;14000;52.056;8.510;2022-08-21T09:38:33;13.30;;;4.07;;
26277;SDS011;14000;52.056;8.510;2022-08-21T09:41:05;14.00;;;3.90;;
26277;SDS011;14000;52.056;8.510;2022-08-21T09:43:35;13.77;;;3.93;;
26277;SDS011;14000;52.056;8.510;2022-08-21T09:46:12;14.07;;;3.13;;
26277;SDS011;14000;52.056;8.510;2022-08-21T09:48:47;12.43;;;3.60;;
26277;SDS011;14000;52.056;8.510;2022-08-21T09:51:19;13.17;;;3.63;;
26277;SDS011;14000;52.056;8.510;2022-08-21T09:56:32;13.27;;;5.20;;
26277;SDS011;14000;52.056;8.510;2022-08-21T09:59:26;14.23;;;5.10;;
26277;SDS011;14000;52.056;8.510;2022-08-21T10:01:56;14.80;;;4.90;;
26277;SDS011;14000;52.056;8.510;2022-08-21T10:04:30;12.73;;;4.90;;
26277;SDS011;14000;52.056;8.510;2022-08-21T10:07:09;14.57;;;5.13;;
26277;SDS011;14000;52.056;8.510;2022-08-21T10:09:36;16.57;;;4.43;;
26277;SDS011;14000;52.056;8.510;2022-08-21T10:26:05;15.37;;;4.53;;
26277;SDS011;14000;52.056;8.510;2022-08-21T10:40:15;14.33;;;3.80;;
26277;SDS011;14000;52.056;8.510;2022-08-21T10:46:07;12.40;;;3.33;;
26277;SDS011;14000;52.056;8.510;2022-08-21T10:48:54;10.97;;;2.40;;
26277;SDS011;14000;52.056;8.510;2022-08-21T10:55:01;12.27;;;3.20;;
26277;SDS011;14000;52.056;8.510;2022-08-21T10:57:38;11.17;;;3.07;;
26277;SDS011;14000;52.056;8.510;2022-08-21T11:00:14;15.93;;;2.83;;
26277;SDS011;14000;52.056;8.510;2022-08-21T11:02:53;11.90;;;3.07;;
26277;SDS011;14000;52.056;8.510;2022-08-21T11:05:26;10.73;;;2.63;;
26277;SDS011;14000;52.056;8.510;2022-08-21T11:08:04;9.97;;;2.73;;
26277;SDS011;14000;52.056;8.510;2022-08-21T11:10:46;10.33;;;2.87;;
26277;SDS011;14000;52.056;8.510;2022-08-21T11:16:17;9.83;;;2.70;;
26277;SDS011;14000;52.056;8.510;2022-08-21T11:18:55;9.90;;;2.57;;
26277;SDS011;14000;52.056;8.510;2022-08-21T11:21:43;10.20;;;2.23;;
26277;SDS011;14000;52.056;8.510;2022-08-21T11:27:05;12.00;;;2.90;;
26277;SDS011;14000;52.056;8.510;2022-08-21T11:29:37;13.93;;;2.60;;
26277;SDS011;14000;52.056;8.510;2022-08-21T11:35:17;9.80;;;2.67;;
26277;SDS011;14000;52.056;8.510;2022-08-21T11:43:48;9.35;;;2.25;;
26277;SDS011;14000;52.056;8.510;2022-08-21T11:46:29;9.35;;;2.30;;
26277;SDS011;14000;52.056;8.510;2022-08-21T11:51:28;11.45;;;2.70;;
26277;SDS011;14000;52.056;8.510;2022-08-21T11:54:37;10.82;;;2.20;;
26277;SDS011;14000;52.056;8.510;2022-08-21T11:57:14;9.45;;;2.40;;
26277;SDS011;14000;52.056;8.510;2022-08-21T12:02:38;10.77;;;3.08;;
26277;SDS011;14000;52.056;8.510;2022-08-21T12:05:10;9.48;;;2.42;;
26277;SDS011;14000;52.056;8.510;2022-08-21T12:07:47;12.13;;;2.80;;
26277;SDS011;14000;52.056;8.510;2022-08-21T12:10:15;9.07;;;2.53;;
26277;SDS011;14000;52.056;8.510;2022-08-21T12:12:46;10.10;;;2.40;;
26277;SDS011;14000;52.056;8.510;2022-08-21T12:18:06;10.05;;;2.55;;
26277;SDS011;14000;52.056;8.510;2022-08-21T12:20:56;10.48;;;2.60;;
26277;SDS011;14000;52.056;8.510;2022-08-21T12:23:31;10.53;;;2.50;;
26277;SDS011;14000;52.056;8.510;2022-08-21T12:28:47;9.73;;;2.40;;
26277;SDS011;14000;52.056;8.510;2022-08-21T12:31:23;12.30;;;2.50;;
26277;SDS011;14000;52.056;8.510;2022-08-21T12:33:59;8.80;;;2.37;;
26277;SDS011;14000;52.056;8.510;2022-08-21T12:36:38;12.63;;;2.53;;
26277;SDS011;14000;52.056;8.510;2022-08-21T12:39:17;11.83;;;2.87;;
26277;SDS011;14000;52.056;8.510;2022-08-21T12:41:50;11.67;;;2.57;;
26277;SDS011;14000;52.056;8.510;2022-08-21T12:44:42;11.37;;;3.43;;
26277;SDS011;14000;52.056;8.510;2022-08-21T12:47:17;8.90;;;2.40;;
26277;SDS011;14000;52.056;8.510;2022-08-21T12:50:06;11.60;;;2.60;;
26277;SDS011;14000;52.056;8.510;2022-08-21T12:52:38;12.80;;;2.47;;
26277;SDS011;14000;52.056;8.510;2022-08-21T12:55:13;11.63;;;2.60;;
26277;SDS011;14000;52.056;8.510;2022-08-21T12:57:42;9.40;;;2.20;;
26277;SDS011;14000;52.056;8.510;2022-08-21T13:00:08;8.97;;;2.07;;
26277;SDS011;14000;52.056;8.510;2022-08-21T13:02:41;9.03;;;2.30;;
26277;SDS011;14000;52.056;8.510;2022-08-21T13:05:12;11.00;;;2.10;;
26277;SDS011;14000;52.056;8.510;2022-08-21T13:07:42;8.93;;;2.00;;
26277;SDS011;14000;52.056;8.510;2022-08-21T13:10:16;11.67;;;2.53;;
26277;SDS011;14000;52.056;8.510;2022-08-21T13:12:53;10.03;;;1.90;;
26277;SDS011;14000;52.056;8.510;2022-08-21T13:15:29;11.30;;;1.83;;
26277;SDS011;14000;52.056;8.510;2022-08-21T13:17:57;10.63;;;2.40;;
26277;SDS011;14000;52.056;8.510;2022-08-21T13:20:33;9.73;;;1.70;;
26277;SDS011;14000;52.056;8.510;2022-08-21T13:23:01;8.80;;;1.90;;
26277;SDS011;14000;52.056;8.510;2022-08-21T13:25:30;10.57;;;2.27;;
26277;SDS011;14000;52.056;8.510;2022-08-21T13:28:05;11.10;;;2.23;;
26277;SDS011;14000;52.056;8.510;2022-08-21T13:30:38;12.97;;;2.40;;
26277;SDS011;14000;52.056;8.510;2022-08-21T13:33:06;9.80;;;2.27;;
26277;SDS011;14000;52.056;8.510;2022-08-21T13:35:48;9.10;;;2.20;;
26277;SDS011;14000;52.056;8.510;2022-08-21T13:38:19;11.57;;;2.47;;
26277;SDS011;14000;52.056;8.510;2022-08-21T13:40:51;9.80;;;2.20;;
26277;SDS011;14000;52.056;8.510;2022-08-21T13:43:22;10.83;;;2.20;;
26277;SDS011;14000;52.056;8.510;2022-08-21T13:45:54;11.90;;;2.40;;
26277;SDS011;14000;52.056;8.510;2022-08-21T13:48:21;8.80;;;2.43;;
26277;SDS011;14000;52.056;8.510;2022-08-21T13:50:50;10.20;;;2.20;;
26277;SDS011;14000;52.056;8.510;2022-08-21T13:55:56;9.97;;;2.27;;
26277;SDS011;14000;52.056;8.510;2022-08-21T13:58:24;10.27;;;2.33;;
26277;SDS011;14000;52.056;8.510;2022-08-21T14:00:54;8.37;;;2.20;;
26277;SDS011;14000;52.056;8.510;2022-08-21T14:06:39;10.70;;;2.20;;
26277;SDS011;14000;52.056;8.510;2022-08-21T14:09:00;9.53;;;2.37;;
26277;SDS011;14000;52.056;8.510;2022-08-21T14:11:33;8.60;;;1.90;;
26277;SDS011;14000;52.056;8.510;2022-08-21T14:14:04;9.30;;;2.00;;
26277;SDS011;14000;52.056;8.510;2022-08-21T14:16:55;8.37;;;1.83;;
26277;SDS011;14000;52.056;8.510;2022-08-21T14:19:36;8.33;;;1.93;;
26277;SDS011;14000;52.056;8.510;2022-08-21T14:30:31;8.17;;;1.40;;
26277;SDS011;14000;52.056;8.510;2022-08-21T14:32:59;11.07;;;1.73;;
26277;SDS011;14000;52.056;8.510;2022-08-21T14:35:26;6.60;;;1.53;;
26277;SDS011;14000;52.056;8.510;2022-08-21T14:37:52;8.07;;;1.40;;
26277;SDS011;14000;52.056;8.510;2022-08-21T14:40:21;6.73;;;1.20;;
26277;SDS011;14000;52.056;8.510;2022-08-21T14:42:48;6.83;;;1.33;;
26277;SDS011;14000;52.056;8.510;2022-08-21T14:47:50;7.17;;;1.27;;
26277;SDS011;14000;52.056;8.510;2022-08-21T14:50:16;6.17;;;1.30;;
26277;SDS011;14000;52.056;8.510;2022-08-21T14:52:42;6.90;;;1.40;;
26277;SDS011;14000;52.056;8.510;2022-08-21T14:55:10;7.83;;;1.20;;
26277;SDS011;14000;52.056;8.510;2022-08-21T14:57:39;6.77;;;1.47;;
26277;SDS011;14000;52.056;8.510;2022-08-21T15:00:08;7.43;;;1.40;;
26277;SDS011;14000;52.056;8.510;2022-08-21T15:02:35;6.60;;;1.40;;
26277;SDS011;14000;52.056;8.510;2022-08-21T15:05:01;6.40;;;1.47;;
26277;SDS011;14000;52.056;8.510;2022-08-21T15:07:27;7.47;;;1.70;;
26277;SDS011;14000;52.056;8.510;2022-08-21T15:09:52;7.20;;;1.37;;
26277;SDS011;14000;52.056;8.510;2022-08-21T15:12:18;8.20;;;1.50;;
26277;SDS011;14000;52.056;8.510;2022-08-21T15:14:44;7.40;;;1.30;;
26277;SDS011;14000;52.056;8.510;2022-08-21T15:17:09;5.47;;;1.30;;
26277;SDS011;14000;52.056;8.510;2022-08-21T15:19:35;8.07;;;1.30;;
26277;SDS011;14000;52.056;8.510;2022-08-21T15:22:02;5.93;;;1.20;;
26277;SDS011;14000;52.056;8.510;2022-08-21T15:24:28;6.60;;;1.30;;
26277;SDS011;14000;52.056;8.510;2022-08-21T15:26:54;6.37;;;1.43;;
26277;SDS011;14000;52.056;8.510;2022-08-21T15:29:21;5.97;;;1.23;;
26277;SDS011;14000;52.056;8.510;2022-08-21T15:31:52;7.43;;;1.37;;
26277;SDS011;14000;52.056;8.510;2022-08-21T15:34:19;6.67;;;1.27;;
26277;SDS011;14000;52.056;8.510;2022-08-21T15:36:45;7.87;;;1.50;;
26277;SDS011;14000;52.056;8.510;2022-08-21T15:39:11;5.13;;;1.13;;
26277;SDS011;14000;52.056;8.510;2022-08-21T15:41:37;7.50;;;1.80;;
26277;SDS011;14000;52.056;8.510;2022-08-21T15:44:02;8.63;;;1.80;;
26277;SDS011;14000;52.056;8.510;2022-08-21T15:46:28;8.47;;;1.50;;
26277;SDS011;14000;52.056;8.510;2022-08-21T15:48:54;7.30;;;1.30;;
26277;SDS011;14000;52.056;8.510;2022-08-21T15:51:19;5.93;;;1.27;;
26277;SDS011;14000;52.056;8.510;2022-08-21T15:53:45;7.87;;;1.30;;
26277;SDS011;14000;52.056;8.510;2022-08-21T15:56:17;6.47;;;1.30;;
26277;SDS011;14000;52.056;8.510;2022-08-21T15:58:48;8.77;;;1.50;;
26277;SDS011;14000;52.056;8.510;2022-08-21T16:01:18;6.03;;;1.20;;
26277;SDS011;14000;52.056;8.510;2022-08-21T16:03:47;10.30;;;1.47;;
26277;SDS011;14000;52.056;8.510;2022-08-21T16:06:14;6.43;;;1.40;;
26277;SDS011;14000;52.056;8.510;2022-08-21T16:08:39;6.60;;;1.20;;
26277;SDS011;14000;52.056;8.510;2022-08-21T16:11:05;5.20;;;1.17;;
26277;SDS011;14000;52.056;8.510;2022-08-21T16:13:36;6.87;;;1.50;;
26277;SDS011;14000;52.056;8.510;2022-08-21T16:16:10;6.30;;;1.40;;
26277;SDS011;14000;52.056;8.510;2022-08-21T16:18:38;5.33;;;1.20;;
26277;SDS011;14000;52.056;8.510;2022-08-21T16:21:04;5.40;;;1.00;;
26277;SDS011;14000;52.056;8.510;2022-08-21T16:23:31;6.00;;;1.20;;
26277;SDS011;14000;52.056;8.510;2022-08-21T16:25:59;6.77;;;1.40;;